sensor_id;sensor_type;location;lat;lon;timestamp;P1;durP1;ratioP1;P2;durP2;ratioP2
32319;SDS011;19080;51.750;5.888;2023-02-26T00:00:06;24.85;;;13.00;;
32319;SDS011;19080;51.750;5.888;2023-02-26T00:02:38;24.40;;;10.40;;
32319;SDS011;19080;51.750;5.888;2023-02-26T00:05:05;14.48;;;6.50;;
32319;SDS011;19080;51.750;5.888;2023-02-26T00:07:32;16.52;;;6.00;;
32319;SDS011;19080;51.750;5.888;2023-02-26T00:09:59;15.13;;;6.22;;
32319;SDS011;19080;51.750;5.888;2023-02-26T00:12:29;12.88;;;4.75;;
32319;SDS011;19080;51.750;5.888;2023-02-26T00:14:56;12.45;;;5.53;;
32319;SDS011;19080;51.750;5.888;2023-02-26T00:20:05;18.73;;;7.73;;
32319;SDS011;19080;51.750;5.888;2023-02-26T00:22:32;10.25;;;5.68;;
32319;SDS011;19080;51.750;5.888;2023-02-26T00:24:59;9.27;;;4.13;;
32319;SDS011;19080;51.750;5.888;2023-02-26T00:27:26;11.88;;;5.50;;
32319;SDS011;19080;51.750;5.888;2023-02-26T00:29:53;13.48;;;7.07;;
32319;SDS011;19080;51.750;5.888;2023-02-26T00:32:19;11.80;;;6.28;;
32319;SDS011;19080;51.750;5.888;2023-02-26T00:34:46;14.43;;;5.65;;
32319;SDS011;19080;51.750;5.888;2023-02-26T00:40:07;14.82;;;5.45;;
32319;SDS011;19080;51.750;5.888;2023-02-26T00:42:54;9.23;;;4.82;;
32319;SDS011;19080;51.750;5.888;2023-02-26T00:45:21;7.93;;;4.78;;
32319;SDS011;19080;51.750;5.888;2023-02-26T00:47:50;12.05;;;5.32;;
32319;SDS011;19080;51.750;5.888;2023-02-26T00:53:11;14.60;;;4.30;;
32319;SDS011;19080;51.750;5.888;2023-02-26T00:55:45;9.48;;;3.30;;
32319;SDS011;19080;51.750;5.888;2023-02-26T00:58:12;6.75;;;3.13;;
32319;SDS011;19080;51.750;5.888;2023-02-26T01:00:39;8.73;;;3.22;;
32319;SDS011;19080;51.750;5.888;2023-02-26T01:03:06;10.20;;;2.50;;
32319;SDS011;19080;51.750;5.888;2023-02-26T01:05:33;6.97;;;2.00;;
32319;SDS011;19080;51.750;5.888;2023-02-26T01:08:22;7.30;;;1.67;;
32319;SDS011;19080;51.750;5.888;2023-02-26T01:10:56;9.27;;;2.60;;
32319;SDS011;19080;51.750;5.888;2023-02-26T01:13:23;5.13;;;1.67;;
32319;SDS011;19080;51.750;5.888;2023-02-26T01:15:51;8.63;;;1.85;;
32319;SDS011;19080;51.750;5.888;2023-02-26T01:18:25;7.18;;;1.75;;
32319;SDS011;19080;51.750;5.888;2023-02-26T01:20:56;11.93;;;2.55;;
32319;SDS011;19080;51.750;5.888;2023-02-26T01:23:30;3.63;;;1.70;;
32319;SDS011;19080;51.750;5.888;2023-02-26T01:26:03;7.03;;;2.10;;
32319;SDS011;19080;51.750;5.888;2023-02-26T01:28:35;4.68;;;1.67;;
32319;SDS011;19080;51.750;5.888;2023-02-26T01:31:03;6.03;;;2.53;;
32319;SDS011;19080;51.750;5.888;2023-02-26T01:33:40;6.80;;;1.58;;
32319;SDS011;19080;51.750;5.888;2023-02-26T01:36:17;11.43;;;2.25;;
32319;SDS011;19080;51.750;5.888;2023-02-26T01:41:35;5.93;;;1.70;;
32319;SDS011;19080;51.750;5.888;2023-02-26T01:46:50;3.58;;;1.40;;
32319;SDS011;19080;51.750;5.888;2023-02-26T01:49:28;3.15;;;1.50;;
32319;SDS011;19080;51.750;5.888;2023-02-26T01:51:56;7.22;;;1.73;;
32319;SDS011;19080;51.750;5.888;2023-02-26T01:54:33;3.83;;;1.58;;
32319;SDS011;19080;51.750;5.888;2023-02-26T01:57:03;6.35;;;1.45;;
32319;SDS011;19080;51.750;5.888;2023-02-26T01:59:38;7.07;;;1.42;;
32319;SDS011;19080;51.750;5.888;2023-02-26T02:02:08;7.95;;;1.60;;
32319;SDS011;19080;51.750;5.888;2023-02-26T02:04:37;2.42;;;1.13;;
32319;SDS011;19080;51.750;5.888;2023-02-26T02:07:05;5.90;;;2.03;;
32319;SDS011;19080;51.750;5.888;2023-02-26T02:09:32;5.68;;;1.77;;
32319;SDS011;19080;51.750;5.888;2023-02-26T02:23:04;2.85;;;1.20;;
32319;SDS011;19080;51.750;5.888;2023-02-26T02:28:59;4.50;;;0.93;;
32319;SDS011;19080;51.750;5.888;2023-02-26T02:31:32;3.28;;;0.93;;
32319;SDS011;19080;51.750;5.888;2023-02-26T02:34:11;4.15;;;1.50;;
32319;SDS011;19080;51.750;5.888;2023-02-26T02:36:48;4.63;;;1.45;;
32319;SDS011;19080;51.750;5.888;2023-02-26T02:39:28;3.28;;;1.02;;
32319;SDS011;19080;51.750;5.888;2023-02-26T02:44:33;5.25;;;1.48;;
32319;SDS011;19080;51.750;5.888;2023-02-26T02:47:04;5.43;;;1.13;;
32319;SDS011;19080;51.750;5.888;2023-02-26T02:49:46;6.70;;;1.33;;
32319;SDS011;19080;51.750;5.888;2023-02-26T02:52:18;3.97;;;1.40;;
32319;SDS011;19080;51.750;5.888;2023-02-26T02:55:12;7.15;;;1.30;;
32319;SDS011;19080;51.750;5.888;2023-02-26T02:57:44;5.68;;;1.63;;
32319;SDS011;19080;51.750;5.888;2023-02-26T03:00:15;8.88;;;1.92;;
32319;SDS011;19080;51.750;5.888;2023-02-26T03:03:00;6.15;;;1.55;;
32319;SDS011;19080;51.750;5.888;2023-02-26T03:05:34;5.18;;;1.42;;
32319;SDS011;19080;51.750;5.888;2023-02-26T03:08:02;6.80;;;1.40;;
32319;SDS011;19080;51.750;5.888;2023-02-26T03:10:33;2.17;;;0.98;;
32319;SDS011;19080;51.750;5.888;2023-02-26T03:13:00;8.02;;;1.20;;
32319;SDS011;19080;51.750;5.888;2023-02-26T03:18:59;5.22;;;1.13;;
32319;SDS011;19080;51.750;5.888;2023-02-26T03:24:14;4.10;;;1.70;;
32319;SDS011;19080;51.750;5.888;2023-02-26T03:27:01;5.85;;;1.80;;
32319;SDS011;19080;51.750;5.888;2023-02-26T03:37:33;7.97;;;1.60;;
32319;SDS011;19080;51.750;5.888;2023-02-26T03:40:07;6.53;;;1.92;;
32319;SDS011;19080;51.750;5.888;2023-02-26T03:42:44;5.78;;;1.77;;
32319;SDS011;19080;51.750;5.888;2023-02-26T03:45:18;9.43;;;1.70;;
32319;SDS011;19080;51.750;5.888;2023-02-26T03:47:50;5.95;;;1.50;;
32319;SDS011;19080;51.750;5.888;2023-02-26T03:53:23;3.72;;;1.88;;
32319;SDS011;19080;51.750;5.888;2023-02-26T03:58:59;4.13;;;1.25;;
32319;SDS011;19080;51.750;5.888;2023-02-26T04:01:53;7.25;;;1.60;;
32319;SDS011;19080;51.750;5.888;2023-02-26T04:04:54;8.10;;;2.20;;
32319;SDS011;19080;51.750;5.888;2023-02-26T04:07:24;8.98;;;2.15;;
32319;SDS011;19080;51.750;5.888;2023-02-26T04:09:51;4.88;;;1.67;;
32319;SDS011;19080;51.750;5.888;2023-02-26T04:12:23;5.13;;;1.90;;
32319;SDS011;19080;51.750;5.888;2023-02-26T04:14:53;6.75;;;2.33;;
32319;SDS011;19080;51.750;5.888;2023-02-26T04:17:20;10.23;;;2.40;;
32319;SDS011;19080;51.750;5.888;2023-02-26T04:19:47;5.65;;;2.05;;
32319;SDS011;19080;51.750;5.888;2023-02-26T04:22:14;6.60;;;1.65;;
32319;SDS011;19080;51.750;5.888;2023-02-26T04:24:41;4.75;;;2.10;;
32319;SDS011;19080;51.750;5.888;2023-02-26T04:27:09;6.30;;;1.40;;
32319;SDS011;19080;51.750;5.888;2023-02-26T04:29:35;5.03;;;1.23;;
32319;SDS011;19080;51.750;5.888;2023-02-26T04:32:03;2.80;;;1.40;;
32319;SDS011;19080;51.750;5.888;2023-02-26T04:34:30;7.15;;;1.70;;
32319;SDS011;19080;51.750;5.888;2023-02-26T04:36:58;4.50;;;1.38;;
32319;SDS011;19080;51.750;5.888;2023-02-26T04:39:24;3.65;;;1.48;;
32319;SDS011;19080;51.750;5.888;2023-02-26T04:41:51;6.07;;;1.55;;
32319;SDS011;19080;51.750;5.888;2023-02-26T04:44:18;6.95;;;1.88;;
32319;SDS011;19080;51.750;5.888;2023-02-26T04:46:44;7.47;;;1.13;;
32319;SDS011;19080;51.750;5.888;2023-02-26T04:49:11;5.13;;;1.88;;
32319;SDS011;19080;51.750;5.888;2023-02-26T04:51:41;3.35;;;1.08;;
32319;SDS011;19080;51.750;5.888;2023-02-26T04:54:10;4.40;;;1.30;;
32319;SDS011;19080;51.750;5.888;2023-02-26T04:56:36;4.47;;;1.15;;
32319;SDS011;19080;51.750;5.888;2023-02-26T04:59:03;8.13;;;1.50;;
32319;SDS011;19080;51.750;5.888;2023-02-26T05:01:30;4.60;;;1.05;;
32319;SDS011;19080;51.750;5.888;2023-02-26T05:03:57;5.68;;;1.27;;
32319;SDS011;19080;51.750;5.888;2023-02-26T05:06:24;6.60;;;1.73;;
32319;SDS011;19080;51.750;5.888;2023-02-26T05:08:51;4.15;;;1.02;;
32319;SDS011;19080;51.750;5.888;2023-02-26T05:11:18;5.78;;;1.15;;
32319;SDS011;19080;51.750;5.888;2023-02-26T05:13:45;11.30;;;1.35;;
32319;SDS011;19080;51.750;5.888;2023-02-26T05:16:13;4.32;;;1.05;;
32319;SDS011;19080;51.750;5.888;2023-02-26T05:18:40;2.90;;;1.15;;
32319;SDS011;19080;51.750;5.888;2023-02-26T05:21:06;6.28;;;1.67;;
32319;SDS011;19080;51.750;5.888;2023-02-26T05:23:33;4.45;;;1.33;;
32319;SDS011;19080;51.750;5.888;2023-02-26T05:26:00;3.03;;;1.63;;
32319;SDS011;19080;51.750;5.888;2023-02-26T05:28:27;6.35;;;2.47;;
32319;SDS011;19080;51.750;5.888;2023-02-26T05:30:54;5.57;;;1.80;;
32319;SDS011;19080;51.750;5.888;2023-02-26T05:33:23;6.40;;;1.50;;
32319;SDS011;19080;51.750;5.888;2023-02-26T05:35:50;7.80;;;1.33;;
32319;SDS011;19080;51.750;5.888;2023-02-26T05:38:16;3.83;;;1.63;;
32319;SDS011;19080;51.750;5.888;2023-02-26T05:40:43;4.70;;;1.20;;
32319;SDS011;19080;51.750;5.888;2023-02-26T05:43:10;3.35;;;1.50;;
32319;SDS011;19080;51.750;5.888;2023-02-26T05:45:36;6.25;;;1.30;;
32319;SDS011;19080;51.750;5.888;2023-02-26T05:48:03;7.85;;;1.55;;
32319;SDS011;19080;51.750;5.888;2023-02-26T05:50:30;5.68;;;1.60;;
32319;SDS011;19080;51.750;5.888;2023-02-26T05:52:56;9.02;;;1.17;;
32319;SDS011;19080;51.750;5.888;2023-02-26T05:55:23;5.82;;;0.98;;
32319;SDS011;19080;51.750;5.888;2023-02-26T05:57:50;3.47;;;1.80;;
32319;SDS011;19080;51.750;5.888;2023-02-26T06:00:17;2.45;;;0.90;;
32319;SDS011;19080;51.750;5.888;2023-02-26T06:02:43;3.38;;;1.00;;
32319;SDS011;19080;51.750;5.888;2023-02-26T06:05:10;6.15;;;0.93;;
32319;SDS011;19080;51.750;5.888;2023-02-26T06:07:37;4.55;;;0.70;;
32319;SDS011;19080;51.750;5.888;2023-02-26T06:10:04;1.35;;;0.80;;
32319;SDS011;19080;51.750;5.888;2023-02-26T06:12:31;4.18;;;1.92;;
32319;SDS011;19080;51.750;5.888;2023-02-26T06:14:57;5.75;;;0.80;;
32319;SDS011;19080;51.750;5.888;2023-02-26T06:17:24;3.47;;;1.27;;
32319;SDS011;19080;51.750;5.888;2023-02-26T06:19:51;6.65;;;1.30;;
32319;SDS011;19080;51.750;5.888;2023-02-26T06:22:17;6.15;;;1.17;;
32319;SDS011;19080;51.750;5.888;2023-02-26T06:24:45;3.15;;;1.02;;
32319;SDS011;19080;51.750;5.888;2023-02-26T06:27:12;4.85;;;1.05;;
32319;SDS011;19080;51.750;5.888;2023-02-26T06:29:38;4.10;;;1.10;;
32319;SDS011;19080;51.750;5.888;2023-02-26T06:32:05;2.60;;;0.70;;
32319;SDS011;19080;51.750;5.888;2023-02-26T06:34:32;2.85;;;0.93;;
32319;SDS011;19080;51.750;5.888;2023-02-26T06:36:59;3.17;;;1.02;;
32319;SDS011;19080;51.750;5.888;2023-02-26T06:39:25;1.92;;;1.02;;
32319;SDS011;19080;51.750;5.888;2023-02-26T06:41:52;3.67;;;1.17;;
32319;SDS011;19080;51.750;5.888;2023-02-26T06:44:19;6.22;;;1.33;;
32319;SDS011;19080;51.750;5.888;2023-02-26T06:46:45;3.80;;;1.05;;
32319;SDS011;19080;51.750;5.888;2023-02-26T06:49:12;2.42;;;0.63;;
32319;SDS011;19080;51.750;5.888;2023-02-26T06:51:39;5.03;;;0.77;;
32319;SDS011;19080;51.750;5.888;2023-02-26T06:54:05;7.22;;;1.67;;
32319;SDS011;19080;51.750;5.888;2023-02-26T06:56:32;2.15;;;0.65;;
32319;SDS011;19080;51.750;5.888;2023-02-26T06:58:59;4.80;;;0.75;;
32319;SDS011;19080;51.750;5.888;2023-02-26T07:01:26;3.67;;;0.90;;
32319;SDS011;19080;51.750;5.888;2023-02-26T07:03:53;4.57;;;0.77;;
32319;SDS011;19080;51.750;5.888;2023-02-26T07:06:20;1.80;;;0.85;;
32319;SDS011;19080;51.750;5.888;2023-02-26T07:08:53;5.55;;;1.35;;
32319;SDS011;19080;51.750;5.888;2023-02-26T07:11:20;6.55;;;1.02;;
32319;SDS011;19080;51.750;5.888;2023-02-26T07:13:48;5.03;;;1.33;;
32319;SDS011;19080;51.750;5.888;2023-02-26T07:16:14;3.22;;;1.10;;
32319;SDS011;19080;51.750;5.888;2023-02-26T07:18:41;4.82;;;1.15;;
32319;SDS011;19080;51.750;5.888;2023-02-26T07:21:07;7.20;;;1.27;;
32319;SDS011;19080;51.750;5.888;2023-02-26T07:23:34;5.03;;;0.80;;
32319;SDS011;19080;51.750;5.888;2023-02-26T07:26:01;2.97;;;0.60;;
32319;SDS011;19080;51.750;5.888;2023-02-26T07:28:28;3.75;;;1.33;;
32319;SDS011;19080;51.750;5.888;2023-02-26T07:30:54;9.60;;;1.45;;
32319;SDS011;19080;51.750;5.888;2023-02-26T07:33:22;4.07;;;1.00;;
32319;SDS011;19080;51.750;5.888;2023-02-26T07:35:50;8.52;;;1.10;;
32319;SDS011;19080;51.750;5.888;2023-02-26T07:38:16;2.72;;;0.80;;
32319;SDS011;19080;51.750;5.888;2023-02-26T07:40:45;1.95;;;0.68;;
32319;SDS011;19080;51.750;5.888;2023-02-26T07:43:12;4.18;;;1.23;;
32319;SDS011;19080;51.750;5.888;2023-02-26T07:45:39;5.50;;;0.80;;
32319;SDS011;19080;51.750;5.888;2023-02-26T07:48:06;1.85;;;0.98;;
32319;SDS011;19080;51.750;5.888;2023-02-26T07:50:32;7.93;;;0.90;;
32319;SDS011;19080;51.750;5.888;2023-02-26T07:52:59;5.20;;;1.00;;
32319;SDS011;19080;51.750;5.888;2023-02-26T07:55:26;3.55;;;1.30;;
32319;SDS011;19080;51.750;5.888;2023-02-26T07:57:53;4.55;;;1.25;;
32319;SDS011;19080;51.750;5.888;2023-02-26T08:00:29;4.72;;;0.75;;
32319;SDS011;19080;51.750;5.888;2023-02-26T08:02:56;4.32;;;1.00;;
32319;SDS011;19080;51.750;5.888;2023-02-26T08:05:22;2.30;;;1.00;;
32319;SDS011;19080;51.750;5.888;2023-02-26T08:07:49;3.28;;;1.10;;
32319;SDS011;19080;51.750;5.888;2023-02-26T08:10:15;1.60;;;0.68;;
32319;SDS011;19080;51.750;5.888;2023-02-26T08:12:42;4.22;;;1.10;;
32319;SDS011;19080;51.750;5.888;2023-02-26T08:15:09;3.60;;;1.00;;
32319;SDS011;19080;51.750;5.888;2023-02-26T08:17:39;4.55;;;1.38;;
32319;SDS011;19080;51.750;5.888;2023-02-26T08:20:07;5.35;;;1.30;;
32319;SDS011;19080;51.750;5.888;2023-02-26T08:22:34;5.28;;;1.02;;
32319;SDS011;19080;51.750;5.888;2023-02-26T08:25:01;3.30;;;1.00;;
32319;SDS011;19080;51.750;5.888;2023-02-26T08:27:27;6.10;;;1.23;;
32319;SDS011;19080;51.750;5.888;2023-02-26T08:29:54;4.13;;;1.00;;
32319;SDS011;19080;51.750;5.888;2023-02-26T08:32:20;2.30;;;1.10;;
32319;SDS011;19080;51.750;5.888;2023-02-26T08:34:48;9.30;;;1.23;;
32319;SDS011;19080;51.750;5.888;2023-02-26T08:37:15;3.55;;;0.88;;
32319;SDS011;19080;51.750;5.888;2023-02-26T08:39:41;4.05;;;1.00;;
32319;SDS011;19080;51.750;5.888;2023-02-26T08:42:08;2.58;;;1.27;;
32319;SDS011;19080;51.750;5.888;2023-02-26T08:44:36;3.53;;;0.85;;
32319;SDS011;19080;51.750;5.888;2023-02-26T08:47:03;3.33;;;0.90;;
32319;SDS011;19080;51.750;5.888;2023-02-26T08:49:29;5.05;;;1.17;;
32319;SDS011;19080;51.750;5.888;2023-02-26T08:51:56;6.57;;;1.00;;
32319;SDS011;19080;51.750;5.888;2023-02-26T08:54:23;2.90;;;0.73;;
32319;SDS011;19080;51.750;5.888;2023-02-26T08:56:50;2.25;;;1.23;;
32319;SDS011;19080;51.750;5.888;2023-02-26T08:59:18;1.13;;;0.75;;
32319;SDS011;19080;51.750;5.888;2023-02-26T09:01:45;5.65;;;1.20;;
32319;SDS011;19080;51.750;5.888;2023-02-26T09:04:12;2.38;;;0.70;;
32319;SDS011;19080;51.750;5.888;2023-02-26T09:06:38;6.68;;;1.20;;
32319;SDS011;19080;51.750;5.888;2023-02-26T09:09:05;3.72;;;1.25;;
32319;SDS011;19080;51.750;5.888;2023-02-26T09:11:32;2.03;;;0.80;;
32319;SDS011;19080;51.750;5.888;2023-02-26T09:13:59;4.93;;;1.10;;
32319;SDS011;19080;51.750;5.888;2023-02-26T09:16:27;2.95;;;1.27;;
32319;SDS011;19080;51.750;5.888;2023-02-26T09:18:55;2.58;;;0.85;;
32319;SDS011;19080;51.750;5.888;2023-02-26T09:21:23;2.42;;;0.85;;
32319;SDS011;19080;51.750;5.888;2023-02-26T09:23:50;3.58;;;0.88;;
32319;SDS011;19080;51.750;5.888;2023-02-26T09:26:17;3.28;;;1.02;;
32319;SDS011;19080;51.750;5.888;2023-02-26T09:28:43;4.60;;;1.00;;
32319;SDS011;19080;51.750;5.888;2023-02-26T09:31:10;4.90;;;1.00;;
32319;SDS011;19080;51.750;5.888;2023-02-26T09:33:37;3.08;;;0.90;;
32319;SDS011;19080;51.750;5.888;2023-02-26T09:36:04;2.97;;;0.80;;
32319;SDS011;19080;51.750;5.888;2023-02-26T09:38:31;6.82;;;0.70;;
32319;SDS011;19080;51.750;5.888;2023-02-26T09:40:58;2.53;;;0.80;;
32319;SDS011;19080;51.750;5.888;2023-02-26T09:50:00;2.63;;;0.80;;
32319;SDS011;19080;51.750;5.888;2023-02-26T09:52:23;3.70;;;0.88;;
32319;SDS011;19080;51.750;5.888;2023-02-26T09:54:55;2.17;;;1.00;;
32319;SDS011;19080;51.750;5.888;2023-02-26T09:57:28;3.78;;;1.20;;
32319;SDS011;19080;51.750;5.888;2023-02-26T10:00:00;4.80;;;1.15;;
32319;SDS011;19080;51.750;5.888;2023-02-26T10:02:39;3.90;;;0.80;;
32319;SDS011;19080;51.750;5.888;2023-02-26T10:08:08;4.10;;;1.20;;
32319;SDS011;19080;51.750;5.888;2023-02-26T10:16:24;1.27;;;0.45;;
32319;SDS011;19080;51.750;5.888;2023-02-26T10:21:57;2.33;;;0.70;;
32319;SDS011;19080;51.750;5.888;2023-02-26T10:24:41;5.20;;;0.82;;
32319;SDS011;19080;51.750;5.888;2023-02-26T10:27:13;2.95;;;0.85;;
32319;SDS011;19080;51.750;5.888;2023-02-26T10:32:36;3.53;;;0.73;;
32319;SDS011;19080;51.750;5.888;2023-02-26T10:35:10;1.33;;;0.60;;
32319;SDS011;19080;51.750;5.888;2023-02-26T10:40:22;1.85;;;0.90;;
32319;SDS011;19080;51.750;5.888;2023-02-26T10:48:36;1.63;;;0.70;;
32319;SDS011;19080;51.750;5.888;2023-02-26T10:51:18;2.38;;;0.75;;
32319;SDS011;19080;51.750;5.888;2023-02-26T10:53:49;1.73;;;0.60;;
32319;SDS011;19080;51.750;5.888;2023-02-26T10:56:22;2.15;;;0.80;;
32319;SDS011;19080;51.750;5.888;2023-02-26T10:58:52;1.85;;;0.70;;
32319;SDS011;19080;51.750;5.888;2023-02-26T11:01:21;1.48;;;0.73;;
32319;SDS011;19080;51.750;5.888;2023-02-26T11:03:53;1.08;;;0.63;;
32319;SDS011;19080;51.750;5.888;2023-02-26T11:06:23;1.52;;;0.65;;
32319;SDS011;19080;51.750;5.888;2023-02-26T11:08:55;4.18;;;0.95;;
32319;SDS011;19080;51.750;5.888;2023-02-26T11:14:12;3.22;;;0.85;;
32319;SDS011;19080;51.750;5.888;2023-02-26T11:16:41;1.08;;;0.63;;
32319;SDS011;19080;51.750;5.888;2023-02-26T11:19:12;2.40;;;0.68;;
32319;SDS011;19080;51.750;5.888;2023-02-26T11:21:42;1.65;;;1.02;;
32319;SDS011;19080;51.750;5.888;2023-02-26T11:24:14;1.50;;;0.60;;
32319;SDS011;19080;51.750;5.888;2023-02-26T11:26:47;0.85;;;0.52;;
32319;SDS011;19080;51.750;5.888;2023-02-26T11:29:16;2.72;;;0.70;;
32319;SDS011;19080;51.750;5.888;2023-02-26T11:31:51;1.25;;;0.70;;
32319;SDS011;19080;51.750;5.888;2023-02-26T11:34:21;1.27;;;0.60;;
32319;SDS011;19080;51.750;5.888;2023-02-26T11:36:50;1.73;;;0.70;;
32319;SDS011;19080;51.750;5.888;2023-02-26T11:39:22;2.63;;;0.70;;
32319;SDS011;19080;51.750;5.888;2023-02-26T11:41:51;4.38;;;0.70;;
32319;SDS011;19080;51.750;5.888;2023-02-26T11:46:57;2.33;;;0.70;;
32319;SDS011;19080;51.750;5.888;2023-02-26T11:49:27;1.35;;;0.43;;
32319;SDS011;19080;51.750;5.888;2023-02-26T11:52:29;1.33;;;0.55;;
32319;SDS011;19080;51.750;5.888;2023-02-26T11:54:54;4.32;;;1.02;;
32319;SDS011;19080;51.750;5.888;2023-02-26T11:57:27;3.67;;;0.98;;
32319;SDS011;19080;51.750;5.888;2023-02-26T11:59:57;3.00;;;0.77;;
32319;SDS011;19080;51.750;5.888;2023-02-26T12:02:26;2.47;;;0.68;;
32319;SDS011;19080;51.750;5.888;2023-02-26T12:04:58;2.25;;;0.50;;
32319;SDS011;19080;51.750;5.888;2023-02-26T12:07:27;1.90;;;0.70;;
32319;SDS011;19080;51.750;5.888;2023-02-26T12:09:55;2.20;;;0.85;;
32319;SDS011;19080;51.750;5.888;2023-02-26T12:12:29;1.00;;;0.40;;
32319;SDS011;19080;51.750;5.888;2023-02-26T12:15:19;2.97;;;0.47;;
32319;SDS011;19080;51.750;5.888;2023-02-26T12:20:34;1.35;;;0.80;;
32319;SDS011;19080;51.750;5.888;2023-02-26T12:26:20;2.05;;;0.70;;
32319;SDS011;19080;51.750;5.888;2023-02-26T12:42:58;3.67;;;1.58;;
32319;SDS011;19080;51.750;5.888;2023-02-26T13:00:22;1.30;;;0.73;;
32319;SDS011;19080;51.750;5.888;2023-02-26T13:14:12;1.67;;;0.50;;
32319;SDS011;19080;51.750;5.888;2023-02-26T13:27:45;1.15;;;0.60;;
32319;SDS011;19080;51.750;5.888;2023-02-26T13:32:46;1.83;;;0.70;;
32319;SDS011;19080;51.750;5.888;2023-02-26T13:37:45;3.55;;;1.33;;
32319;SDS011;19080;51.750;5.888;2023-02-26T13:46:11;4.28;;;1.40;;
32319;SDS011;19080;51.750;5.888;2023-02-26T13:48:50;3.08;;;1.00;;
32319;SDS011;19080;51.750;5.888;2023-02-26T13:51:33;1.83;;;0.88;;
32319;SDS011;19080;51.750;5.888;2023-02-26T14:06:45;2.57;;;1.00;;
32319;SDS011;19080;51.750;5.888;2023-02-26T14:14:32;1.90;;;0.70;;
32319;SDS011;19080;51.750;5.888;2023-02-26T14:17:26;3.85;;;0.85;;
32319;SDS011;19080;51.750;5.888;2023-02-26T14:20:13;2.40;;;0.95;;
32319;SDS011;19080;51.750;5.888;2023-02-26T14:25:44;2.28;;;0.80;;
32319;SDS011;19080;51.750;5.888;2023-02-26T14:30:51;1.60;;;0.70;;
32319;SDS011;19080;51.750;5.888;2023-02-26T14:33:41;1.98;;;1.10;;
32319;SDS011;19080;51.750;5.888;2023-02-26T14:36:16;2.70;;;0.90;;
32319;SDS011;19080;51.750;5.888;2023-02-26T14:38:46;3.38;;;1.30;;
32319;SDS011;19080;51.750;5.888;2023-02-26T14:41:28;3.75;;;0.80;;
32319;SDS011;19080;51.750;5.888;2023-02-26T14:46:32;1.33;;;0.60;;
32319;SDS011;19080;51.750;5.888;2023-02-26T14:49:00;2.42;;;0.90;;
32319;SDS011;19080;51.750;5.888;2023-02-26T14:54:10;2.90;;;0.82;;
32319;SDS011;19080;51.750;5.888;2023-02-26T14:59:58;0.65;;;0.50;;
32319;SDS011;19080;51.750;5.888;2023-02-26T15:02:46;0.98;;;0.73;;
32319;SDS011;19080;51.750;5.888;2023-02-26T15:05:49;2.60;;;1.02;;
32319;SDS011;19080;51.750;5.888;2023-02-26T15:11:24;2.72;;;0.80;;
32319;SDS011;19080;51.750;5.888;2023-02-26T15:19:49;2.60;;;0.73;;
32319;SDS011;19080;51.750;5.888;2023-02-26T15:22:53;1.85;;;0.80;;
32319;SDS011;19080;51.750;5.888;2023-02-26T15:25:34;1.77;;;0.93;;
32319;SDS011;19080;51.750;5.888;2023-02-26T15:28:04;2.17;;;0.80;;
32319;SDS011;19080;51.750;5.888;2023-02-26T15:30:36;1.98;;;0.65;;
32319;SDS011;19080;51.750;5.888;2023-02-26T15:33:04;1.55;;;0.75;;
32319;SDS011;19080;51.750;5.888;2023-02-26T15:35:36;2.65;;;0.63;;
32319;SDS011;19080;51.750;5.888;2023-02-26T15:38:03;2.92;;;0.80;;
32319;SDS011;19080;51.750;5.888;2023-02-26T15:40:31;1.35;;;0.65;;
32319;SDS011;19080;51.750;5.888;2023-02-26T15:43:00;1.00;;;0.60;;
32319;SDS011;19080;51.750;5.888;2023-02-26T15:45:38;3.75;;;0.73;;
32319;SDS011;19080;51.750;5.888;2023-02-26T15:51:08;5.63;;;1.58;;
32319;SDS011;19080;51.750;5.888;2023-02-26T15:53:45;1.92;;;1.00;;
32319;SDS011;19080;51.750;5.888;2023-02-26T15:56:18;3.10;;;1.92;;
32319;SDS011;19080;51.750;5.888;2023-02-26T15:58:53;4.93;;;1.67;;
32319;SDS011;19080;51.750;5.888;2023-02-26T16:01:27;3.35;;;2.22;;
32319;SDS011;19080;51.750;5.888;2023-02-26T16:03:59;1.10;;;0.60;;
32319;SDS011;19080;51.750;5.888;2023-02-26T16:06:35;3.58;;;0.90;;
32319;SDS011;19080;51.750;5.888;2023-02-26T16:09:06;1.75;;;0.68;;
32319;SDS011;19080;51.750;5.888;2023-02-26T16:11:35;0.95;;;0.50;;
32319;SDS011;19080;51.750;5.888;2023-02-26T16:14:05;1.88;;;0.73;;
32319;SDS011;19080;51.750;5.888;2023-02-26T16:16:37;2.38;;;0.60;;
32319;SDS011;19080;51.750;5.888;2023-02-26T16:19:08;1.60;;;0.88;;
32319;SDS011;19080;51.750;5.888;2023-02-26T16:21:40;2.17;;;0.60;;
32319;SDS011;19080;51.750;5.888;2023-02-26T16:24:11;2.53;;;1.38;;
32319;SDS011;19080;51.750;5.888;2023-02-26T16:26:43;1.13;;;0.73;;
32319;SDS011;19080;51.750;5.888;2023-02-26T16:29:15;2.50;;;0.80;;
32319;SDS011;19080;51.750;5.888;2023-02-26T16:31:44;1.98;;;1.10;;
32319;SDS011;19080;51.750;5.888;2023-02-26T16:37:21;1.48;;;0.90;;
32319;SDS011;19080;51.750;5.888;2023-02-26T16:39:55;3.38;;;1.02;;
32319;SDS011;19080;51.750;5.888;2023-02-26T16:48:04;2.70;;;1.75;;
32319;SDS011;19080;51.750;5.888;2023-02-26T16:50:37;4.40;;;1.30;;
32319;SDS011;19080;51.750;5.888;2023-02-26T16:53:17;1.95;;;0.93;;
32319;SDS011;19080;51.750;5.888;2023-02-26T16:55:51;3.50;;;1.00;;
32319;SDS011;19080;51.750;5.888;2023-02-26T16:58:21;2.50;;;1.00;;
32319;SDS011;19080;51.750;5.888;2023-02-26T17:00:51;4.15;;;1.75;;
32319;SDS011;19080;51.750;5.888;2023-02-26T17:03:25;2.25;;;0.80;;
32319;SDS011;19080;51.750;5.888;2023-02-26T17:05:57;4.30;;;1.50;;
32319;SDS011;19080;51.750;5.888;2023-02-26T17:08:31;1.27;;;0.60;;
32319;SDS011;19080;51.750;5.888;2023-02-26T17:11:03;2.53;;;1.50;;
32319;SDS011;19080;51.750;5.888;2023-02-26T17:13:33;3.20;;;1.50;;
32319;SDS011;19080;51.750;5.888;2023-02-26T17:16:01;2.45;;;1.10;;
32319;SDS011;19080;51.750;5.888;2023-02-26T17:18:30;1.77;;;1.02;;
32319;SDS011;19080;51.750;5.888;2023-02-26T17:20:57;2.88;;;1.10;;
32319;SDS011;19080;51.750;5.888;2023-02-26T17:23:30;4.13;;;1.50;;
32319;SDS011;19080;51.750;5.888;2023-02-26T17:26:02;4.78;;;1.40;;
32319;SDS011;19080;51.750;5.888;2023-02-26T17:28:31;2.55;;;1.10;;
32319;SDS011;19080;51.750;5.888;2023-02-26T17:31:05;2.17;;;1.10;;
32319;SDS011;19080;51.750;5.888;2023-02-26T17:33:33;5.18;;;1.92;;
32319;SDS011;19080;51.750;5.888;2023-02-26T17:36:01;15.05;;;8.43;;
32319;SDS011;19080;51.750;5.888;2023-02-26T17:38:29;6.55;;;4.28;;
32319;SDS011;19080;51.750;5.888;2023-02-26T17:40:58;2.90;;;2.40;;
32319;SDS011;19080;51.750;5.888;2023-02-26T17:43:26;2.97;;;2.65;;
32319;SDS011;19080;51.750;5.888;2023-02-26T17:45:53;4.85;;;2.90;;
32319;SDS011;19080;51.750;5.888;2023-02-26T17:48:20;5.30;;;2.67;;
32319;SDS011;19080;51.750;5.888;2023-02-26T17:50:49;9.93;;;6.10;;
32319;SDS011;19080;51.750;5.888;2023-02-26T17:53:18;13.05;;;8.73;;
32319;SDS011;19080;51.750;5.888;2023-02-26T17:55:46;9.23;;;5.22;;
32319;SDS011;19080;51.750;5.888;2023-02-26T17:58:20;3.22;;;2.60;;
32319;SDS011;19080;51.750;5.888;2023-02-26T18:00:52;3.47;;;1.85;;
32319;SDS011;19080;51.750;5.888;2023-02-26T18:03:20;2.70;;;1.70;;
32319;SDS011;19080;51.750;5.888;2023-02-26T18:05:48;3.53;;;2.00;;
32319;SDS011;19080;51.750;5.888;2023-02-26T18:08:18;4.75;;;2.92;;
32319;SDS011;19080;51.750;5.888;2023-02-26T18:10:48;5.22;;;2.47;;
32319;SDS011;19080;51.750;5.888;2023-02-26T18:13:15;2.97;;;1.52;;
32319;SDS011;19080;51.750;5.888;2023-02-26T18:15:42;2.70;;;1.25;;
32319;SDS011;19080;51.750;5.888;2023-02-26T18:18:12;3.00;;;1.80;;
32319;SDS011;19080;51.750;5.888;2023-02-26T18:20:40;3.92;;;2.35;;
32319;SDS011;19080;51.750;5.888;2023-02-26T18:23:07;6.78;;;4.10;;
32319;SDS011;19080;51.750;5.888;2023-02-26T18:25:38;3.83;;;1.17;;
32319;SDS011;19080;51.750;5.888;2023-02-26T18:28:09;3.58;;;2.42;;
32319;SDS011;19080;51.750;5.888;2023-02-26T18:30:41;4.22;;;2.05;;
32319;SDS011;19080;51.750;5.888;2023-02-26T18:33:10;3.00;;;1.65;;